sensor_id;sensor_type;location;lat;lon;timestamp;temperature;humidity
24252;DHT22;12380;51.118;4.176;2022-07-24T00:00:44;19.00;99.90
24252;DHT22;12380;51.118;4.176;2022-07-24T00:03:11;18.90;99.90
24252;DHT22;12380;51.118;4.176;2022-07-24T00:05:36;18.80;99.90
24252;DHT22;12380;51.118;4.176;2022-07-24T00:08:04;18.80;99.90
24252;DHT22;12380;51.118;4.176;2022-07-24T00:10:33;18.80;99.90
24252;DHT22;12380;51.118;4.176;2022-07-24T00:12:59;18.80;99.90
24252;DHT22;12380;51.118;4.176;2022-07-24T00:15:25;18.80;99.90
24252;DHT22;12380;51.118;4.176;2022-07-24T00:17:51;18.70;99.90
24252;DHT22;12380;51.118;4.176;2022-07-24T00:20:17;18.70;99.90
24252;DHT22;12380;51.118;4.176;2022-07-24T00:22:43;18.60;99.90
24252;DHT22;12380;51.118;4.176;2022-07-24T00:25:09;18.60;99.90
24252;DHT22;12380;51.118;4.176;2022-07-24T00:27:38;18.60;99.90
24252;DHT22;12380;51.118;4.176;2022-07-24T00:30:07;18.50;99.90
24252;DHT22;12380;51.118;4.176;2022-07-24T00:32:34;18.50;99.90
24252;DHT22;12380;51.118;4.176;2022-07-24T00:35:00;18.50;99.90
24252;DHT22;12380;51.118;4.176;2022-07-24T00:37:25;18.50;99.90
24252;DHT22;12380;51.118;4.176;2022-07-24T00:39:52;18.50;99.90
24252;DHT22;12380;51.118;4.176;2022-07-24T00:42:18;18.50;99.90
24252;DHT22;12380;51.118;4.176;2022-07-24T00:44:44;18.50;99.90
24252;DHT22;12380;51.118;4.176;2022-07-24T00:47:09;18.40;99.90
24252;DHT22;12380;51.118;4.176;2022-07-24T00:49:36;18.40;99.90
24252;DHT22;12380;51.118;4.176;2022-07-24T00:52:02;18.40;99.90
24252;DHT22;12380;51.118;4.176;2022-07-24T00:54:29;18.40;99.90
24252;DHT22;12380;51.118;4.176;2022-07-24T00:56:55;18.40;99.90
24252;DHT22;12380;51.118;4.176;2022-07-24T00:59:22;18.40;99.90
24252;DHT22;12380;51.118;4.176;2022-07-24T01:01:49;18.40;99.90
24252;DHT22;12380;51.118;4.176;2022-07-24T01:04:15;18.30;99.90
24252;DHT22;12380;51.118;4.176;2022-07-24T01:06:42;18.20;99.90
24252;DHT22;12380;51.118;4.176;2022-07-24T01:09:11;18.20;99.90
24252;DHT22;12380;51.118;4.176;2022-07-24T01:11:38;18.20;99.90
24252;DHT22;12380;51.118;4.176;2022-07-24T01:14:05;18.10;99.90
24252;DHT22;12380;51.118;4.176;2022-07-24T01:16:32;18.10;99.90
24252;DHT22;12380;51.118;4.176;2022-07-24T01:18:58;18.10;99.90
24252;DHT22;12380;51.118;4.176;2022-07-24T01:21:25;17.90;99.90
24252;DHT22;12380;51.118;4.176;2022-07-24T01:23:51;17.90;99.90
24252;DHT22;12380;51.118;4.176;2022-07-24T01:26:17;18.00;99.90
24252;DHT22;12380;51.118;4.176;2022-07-24T01:28:44;18.10;99.90
24252;DHT22;12380;51.118;4.176;2022-07-24T01:31:12;18.10;99.90
24252;DHT22;12380;51.118;4.176;2022-07-24T01:33:37;18.00;99.90
24252;DHT22;12380;51.118;4.176;2022-07-24T01:36:03;18.00;99.90
24252;DHT22;12380;51.118;4.176;2022-07-24T01:38:30;18.00;99.90
24252;DHT22;12380;51.118;4.176;2022-07-24T01:41:00;18.00;99.90
24252;DHT22;12380;51.118;4.176;2022-07-24T01:43:26;18.10;99.90
24252;DHT22;12380;51.118;4.176;2022-07-24T01:45:53;18.00;99.90
24252;DHT22;12380;51.118;4.176;2022-07-24T01:48:18;18.00;99.90
24252;DHT22;12380;51.118;4.176;2022-07-24T01:50:46;17.90;99.90
24252;DHT22;12380;51.118;4.176;2022-07-24T01:53:12;17.80;99.90
24252;DHT22;12380;51.118;4.176;2022-07-24T01:55:38;17.70;99.90
24252;DHT22;12380;51.118;4.176;2022-07-24T01:58:04;17.80;99.90
24252;DHT22;12380;51.118;4.176;2022-07-24T02:00:32;17.80;99.90
24252;DHT22;12380;51.118;4.176;2022-07-24T02:02:58;17.70;99.90
24252;DHT22;12380;51.118;4.176;2022-07-24T02:05:25;17.80;99.90
24252;DHT22;12380;51.118;4.176;2022-07-24T02:07:57;17.80;99.90
24252;DHT22;12380;51.118;4.176;2022-07-24T02:10:24;17.60;99.90
24252;DHT22;12380;51.118;4.176;2022-07-24T02:12:51;17.60;99.90
24252;DHT22;12380;51.118;4.176;2022-07-24T02:15:19;17.70;99.90
24252;DHT22;12380;51.118;4.176;2022-07-24T02:17:47;17.80;99.90
24252;DHT22;12380;51.118;4.176;2022-07-24T02:20:14;17.80;99.90
24252;DHT22;12380;51.118;4.176;2022-07-24T02:22:40;17.70;99.90
24252;DHT22;12380;51.118;4.176;2022-07-24T02:25:10;17.70;99.90
24252;DHT22;12380;51.118;4.176;2022-07-24T02:27:36;17.70;99.90
24252;DHT22;12380;51.118;4.176;2022-07-24T02:30:09;17.60;99.90
24252;DHT22;12380;51.118;4.176;2022-07-24T02:32:35;17.50;99.90
24252;DHT22;12380;51.118;4.176;2022-07-24T02:35:03;17.50;99.90
24252;DHT22;12380;51.118;4.176;2022-07-24T02:37:29;17.50;99.90
24252;DHT22;12380;51.118;4.176;2022-07-24T02:39:58;17.40;99.90
24252;DHT22;12380;51.118;4.176;2022-07-24T02:42:23;17.40;99.90
24252;DHT22;12380;51.118;4.176;2022-07-24T02:44:50;17.40;99.90
24252;DHT22;12380;51.118;4.176;2022-07-24T02:47:15;17.40;99.90
24252;DHT22;12380;51.118;4.176;2022-07-24T02:49:41;17.30;99.90
24252;DHT22;12380;51.118;4.176;2022-07-24T02:52:08;17.20;99.90
24252;DHT22;12380;51.118;4.176;2022-07-24T02:54:36;17.20;99.90
24252;DHT22;12380;51.118;4.176;2022-07-24T02:57:21;17.20;99.90
24252;DHT22;12380;51.118;4.176;2022-07-24T02:59:48;17.20;99.90
24252;DHT22;12380;51.118;4.176;2022-07-24T03:02:18;17.10;99.90
24252;DHT22;12380;51.118;4.176;2022-07-24T03:04:44;17.00;99.90
24252;DHT22;12380;51.118;4.176;2022-07-24T03:07:10;17.10;99.90
24252;DHT22;12380;51.118;4.176;2022-07-24T03:09:38;17.00;99.90
24252;DHT22;12380;51.118;4.176;2022-07-24T03:12:05;17.00;99.90
24252;DHT22;12380;51.118;4.176;2022-07-24T03:14:37;17.00;99.90
24252;DHT22;12380;51.118;4.176;2022-07-24T03:17:04;17.00;99.90
24252;DHT22;12380;51.118;4.176;2022-07-24T03:19:33;17.10;99.90
24252;DHT22;12380;51.118;4.176;2022-07-24T03:22:01;17.10;99.90
24252;DHT22;12380;51.118;4.176;2022-07-24T03:24:27;17.10;99.90
24252;DHT22;12380;51.118;4.176;2022-07-24T03:26:56;17.10;99.90
24252;DHT22;12380;51.118;4.176;2022-07-24T03:29:22;17.00;99.90
24252;DHT22;12380;51.118;4.176;2022-07-24T03:31:50;17.00;99.90
24252;DHT22;12380;51.118;4.176;2022-07-24T03:34:16;17.00;99.90
24252;DHT22;12380;51.118;4.176;2022-07-24T03:36:42;16.90;99.90
24252;DHT22;12380;51.118;4.176;2022-07-24T03:39:10;16.80;99.90
24252;DHT22;12380;51.118;4.176;2022-07-24T03:41:39;16.80;99.90
24252;DHT22;12380;51.118;4.176;2022-07-24T03:44:05;16.70;99.90
24252;DHT22;12380;51.118;4.176;2022-07-24T03:46:31;16.80;99.90
24252;DHT22;12380;51.118;4.176;2022-07-24T03:49:03;16.80;99.90
24252;DHT22;12380;51.118;4.176;2022-07-24T03:51:29;16.70;99.90
24252;DHT22;12380;51.118;4.176;2022-07-24T03:53:55;16.70;99.90
24252;DHT22;12380;51.118;4.176;2022-07-24T03:56:24;16.70;99.90
24252;DHT22;12380;51.118;4.176;2022-07-24T03:58:49;16.70;99.90
24252;DHT22;12380;51.118;4.176;2022-07-24T04:01:18;16.70;99.90
24252;DHT22;12380;51.118;4.176;2022-07-24T04:03:44;16.70;99.90
24252;DHT22;12380;51.118;4.176;2022-07-24T04:06:10;16.70;99.90
24252;DHT22;12380;51.118;4.176;2022-07-24T04:08:39;16.70;99.90
24252;DHT22;12380;51.118;4.176;2022-07-24T04:11:06;16.70;99.90
24252;DHT22;12380;51.118;4.176;2022-07-24T04:13:33;16.60;99.90
24252;DHT22;12380;51.118;4.176;2022-07-24T04:16:03;16.50;99.90
24252;DHT22;12380;51.118;4.176;2022-07-24T04:18:29;16.50;99.90
24252;DHT22;12380;51.118;4.176;2022-07-24T04:20:55;16.50;99.90
24252;DHT22;12380;51.118;4.176;2022-07-24T04:23:20;16.50;99.90
24252;DHT22;12380;51.118;4.176;2022-07-24T04:25:47;16.50;99.90
24252;DHT22;12380;51.118;4.176;2022-07-24T04:28:15;16.40;99.90
24252;DHT22;12380;51.118;4.176;2022-07-24T04:30:42;16.40;99.90
24252;DHT22;12380;51.118;4.176;2022-07-24T04:33:10;16.40;99.90
24252;DHT22;12380;51.118;4.176;2022-07-24T04:35:35;16.50;99.90
24252;DHT22;12380;51.118;4.176;2022-07-24T04:38:04;16.60;99.90
24252;DHT22;12380;51.118;4.176;2022-07-24T04:40:29;16.60;99.90
24252;DHT22;12380;51.118;4.176;2022-07-24T04:42:57;16.60;99.90
24252;DHT22;12380;51.118;4.176;2022-07-24T04:45:23;16.70;99.90
24252;DHT22;12380;51.118;4.176;2022-07-24T04:47:49;16.60;99.90
24252;DHT22;12380;51.118;4.176;2022-07-24T04:50:15;16.70;99.90
24252;DHT22;12380;51.118;4.176;2022-07-24T04:52:41;16.80;99.90
24252;DHT22;12380;51.118;4.176;2022-07-24T04:55:08;17.10;99.90
24252;DHT22;12380;51.118;4.176;2022-07-24T04:57:34;17.10;99.90
24252;DHT22;12380;51.118;4.176;2022-07-24T05:00:20;17.10;99.90
24252;DHT22;12380;51.118;4.176;2022-07-24T05:02:45;17.00;99.90
24252;DHT22;12380;51.118;4.176;2022-07-24T05:05:11;17.00;99.90
24252;DHT22;12380;51.118;4.176;2022-07-24T05:07:37;17.00;99.90
24252;DHT22;12380;51.118;4.176;2022-07-24T05:10:04;16.90;99.90
24252;DHT22;12380;51.118;4.176;2022-07-24T05:12:30;16.90;99.90
24252;DHT22;12380;51.118;4.176;2022-07-24T05:14:56;16.80;99.90
24252;DHT22;12380;51.118;4.176;2022-07-24T05:17:21;16.90;99.90
24252;DHT22;12380;51.118;4.176;2022-07-24T05:19:47;16.90;99.90
24252;DHT22;12380;51.118;4.176;2022-07-24T05:22:13;17.00;99.90
24252;DHT22;12380;51.118;4.176;2022-07-24T05:24:39;17.00;99.90
24252;DHT22;12380;51.118;4.176;2022-07-24T05:27:04;17.20;99.90
24252;DHT22;12380;51.118;4.176;2022-07-24T05:29:33;17.20;99.90
24252;DHT22;12380;51.118;4.176;2022-07-24T05:31:58;17.10;99.90
24252;DHT22;12380;51.118;4.176;2022-07-24T05:34:26;17.30;99.90
24252;DHT22;12380;51.118;4.176;2022-07-24T05:36:55;17.30;99.90
24252;DHT22;12380;51.118;4.176;2022-07-24T05:39:21;17.40;99.90
24252;DHT22;12380;51.118;4.176;2022-07-24T05:41:46;17.50;99.90
24252;DHT22;12380;51.118;4.176;2022-07-24T05:44:12;17.50;99.90
24252;DHT22;12380;51.118;4.176;2022-07-24T05:46:38;17.60;99.90
24252;DHT22;12380;51.118;4.176;2022-07-24T05:49:07;17.60;99.90
24252;DHT22;12380;51.118;4.176;2022-07-24T05:51:32;17.60;99.90
24252;DHT22;12380;51.118;4.176;2022-07-24T05:53:58;17.80;99.90
24252;DHT22;12380;51.118;4.176;2022-07-24T05:56:25;17.90;99.90
24252;DHT22;12380;51.118;4.176;2022-07-24T05:58:53;18.10;99.90
24252;DHT22;12380;51.118;4.176;2022-07-24T06:01:19;18.20;99.90
24252;DHT22;12380;51.118;4.176;2022-07-24T06:03:45;18.20;99.90
24252;DHT22;12380;51.118;4.176;2022-07-24T06:06:12;18.40;99.90
24252;DHT22;12380;51.118;4.176;2022-07-24T06:08:38;18.80;99.90
24252;DHT22;12380;51.118;4.176;2022-07-24T06:11:06;18.80;99.90
24252;DHT22;12380;51.118;4.176;2022-07-24T06:13:32;19.10;99.90
24252;DHT22;12380;51.118;4.176;2022-07-24T06:15:58;19.50;99.90
24252;DHT22;12380;51.118;4.176;2022-07-24T06:18:24;19.80;99.90
24252;DHT22;12380;51.118;4.176;2022-07-24T06:20:52;20.00;96.30
24252;DHT22;12380;51.118;4.176;2022-07-24T06:23:21;20.00;98.80
24252;DHT22;12380;51.118;4.176;2022-07-24T06:25:47;20.00;77.40
24252;DHT22;12380;51.118;4.176;2022-07-24T06:28:12;19.90;48.20
24252;DHT22;12380;51.118;4.176;2022-07-24T06:30:38;19.90;72.20
24252;DHT22;12380;51.118;4.176;2022-07-24T06:33:04;20.30;44.60
24252;DHT22;12380;51.118;4.176;2022-07-24T06:35:30;20.60;6.20
24252;DHT22;12380;51.118;4.176;2022-07-24T06:37:59;20.90;1.00
24252;DHT22;12380;51.118;4.176;2022-07-24T06:40:26;21.20;1.00
24252;DHT22;12380;51.118;4.176;2022-07-24T06:42:55;21.30;1.00
24252;DHT22;12380;51.118;4.176;2022-07-24T06:45:21;21.40;1.00
24252;DHT22;12380;51.118;4.176;2022-07-24T06:47:50;21.70;1.00
24252;DHT22;12380;51.118;4.176;2022-07-24T06:50:16;21.90;1.00
24252;DHT22;12380;51.118;4.176;2022-07-24T06:52:43;22.10;1.00
24252;DHT22;12380;51.118;4.176;2022-07-24T06:55:10;22.10;1.00
24252;DHT22;12380;51.118;4.176;2022-07-24T06:57:39;21.90;1.00
24252;DHT22;12380;51.118;4.176;2022-07-24T07:00:06;22.00;1.00
24252;DHT22;12380;51.118;4.176;2022-07-24T07:02:33;22.40;1.00
24252;DHT22;12380;51.118;4.176;2022-07-24T07:04:59;22.50;1.00
24252;DHT22;12380;51.118;4.176;2022-07-24T07:07:25;22.80;1.00
24252;DHT22;12380;51.118;4.176;2022-07-24T07:09:52;23.10;1.00
24252;DHT22;12380;51.118;4.176;2022-07-24T07:12:18;23.20;1.00
24252;DHT22;12380;51.118;4.176;2022-07-24T07:14:43;23.30;99.90
24252;DHT22;12380;51.118;4.176;2022-07-24T07:17:09;23.60;99.90
24252;DHT22;12380;51.118;4.176;2022-07-24T07:19:35;23.30;99.90
24252;DHT22;12380;51.118;4.176;2022-07-24T07:22:01;23.40;99.90
24252;DHT22;12380;51.118;4.176;2022-07-24T07:24:27;23.80;99.90
24252;DHT22;12380;51.118;4.176;2022-07-24T07:26:53;24.00;99.90
24252;DHT22;12380;51.118;4.176;2022-07-24T07:29:19;23.70;1.00
24252;DHT22;12380;51.118;4.176;2022-07-24T07:31:48;24.00;1.00
24252;DHT22;12380;51.118;4.176;2022-07-24T07:34:14;24.30;1.00
24252;DHT22;12380;51.118;4.176;2022-07-24T07:36:40;24.20;99.90
24252;DHT22;12380;51.118;4.176;2022-07-24T07:39:08;24.00;99.90
24252;DHT22;12380;51.118;4.176;2022-07-24T07:41:37;24.40;1.00
24252;DHT22;12380;51.118;4.176;2022-07-24T07:44:03;24.60;1.00
24252;DHT22;12380;51.118;4.176;2022-07-24T07:46:30;25.00;26.00
24252;DHT22;12380;51.118;4.176;2022-07-24T07:48:55;25.20;99.90
24252;DHT22;12380;51.118;4.176;2022-07-24T07:51:21;25.20;1.00
24252;DHT22;12380;51.118;4.176;2022-07-24T07:53:47;24.90;1.00
24252;DHT22;12380;51.118;4.176;2022-07-24T07:56:14;25.10;99.90
24252;DHT22;12380;51.118;4.176;2022-07-24T07:58:43;25.60;99.90
24252;DHT22;12380;51.118;4.176;2022-07-24T08:01:08;26.00;1.00
24252;DHT22;12380;51.118;4.176;2022-07-24T08:03:37;25.70;99.90
24252;DHT22;12380;51.118;4.176;2022-07-24T08:06:02;25.50;1.00
24252;DHT22;12380;51.118;4.176;2022-07-24T08:08:29;25.50;1.00
24252;DHT22;12380;51.118;4.176;2022-07-24T08:10:55;25.80;1.00
24252;DHT22;12380;51.118;4.176;2022-07-24T08:13:22;25.70;1.00
24252;DHT22;12380;51.118;4.176;2022-07-24T08:15:47;25.90;33.90
24252;DHT22;12380;51.118;4.176;2022-07-24T08:18:14;26.20;1.00
24252;DHT22;12380;51.118;4.176;2022-07-24T08:20:39;26.20;1.00
24252;DHT22;12380;51.118;4.176;2022-07-24T08:23:05;26.10;1.00
24252;DHT22;12380;51.118;4.176;2022-07-24T08:25:33;26.40;99.90
24252;DHT22;12380;51.118;4.176;2022-07-24T08:27:59;27.60;1.00
24252;DHT22;12380;51.118;4.176;2022-07-24T08:30:28;27.00;1.00
24252;DHT22;12380;51.118;4.176;2022-07-24T08:32:53;26.70;99.90
24252;DHT22;12380;51.118;4.176;2022-07-24T08:35:21;26.90;1.00
24252;DHT22;12380;51.118;4.176;2022-07-24T08:37:49;27.00;99.90
24252;DHT22;12380;51.118;4.176;2022-07-24T08:40:16;27.00;26.10
24252;DHT22;12380;51.118;4.176;2022-07-24T08:42:42;27.20;99.90
24252;DHT22;12380;51.118;4.176;2022-07-24T08:45:09;27.70;1.00
24252;DHT22;12380;51.118;4.176;2022-07-24T08:47:37;28.10;1.00
24252;DHT22;12380;51.118;4.176;2022-07-24T08:50:05;28.10;99.90
24252;DHT22;12380;51.118;4.176;2022-07-24T08:52:31;28.20;1.00
24252;DHT22;12380;51.118;4.176;2022-07-24T08:54:58;28.40;1.00
24252;DHT22;12380;51.118;4.176;2022-07-24T08:57:26;28.20;99.90
24252;DHT22;12380;51.118;4.176;2022-07-24T08:59:52;28.60;1.00
24252;DHT22;12380;51.118;4.176;2022-07-24T09:02:18;28.30;99.90
24252;DHT22;12380;51.118;4.176;2022-07-24T09:04:46;28.10;1.00
24252;DHT22;12380;51.118;4.176;2022-07-24T09:07:14;28.50;1.00
24252;DHT22;12380;51.118;4.176;2022-07-24T09:09:41;29.10;99.90
24252;DHT22;12380;51.118;4.176;2022-07-24T09:12:11;29.10;99.90
24252;DHT22;12380;51.118;4.176;2022-07-24T09:14:46;28.90;99.90
24252;DHT22;12380;51.118;4.176;2022-07-24T09:17:21;29.20;99.90
24252;DHT22;12380;51.118;4.176;2022-07-24T09:19:53;28.80;99.90
24252;DHT22;12380;51.118;4.176;2022-07-24T09:22:37;29.20;99.90
24252;DHT22;12380;51.118;4.176;2022-07-24T09:25:16;29.70;99.90
24252;DHT22;12380;51.118;4.176;2022-07-24T09:27:51;29.80;99.90
24252;DHT22;12380;51.118;4.176;2022-07-24T09:33:00;30.00;99.90
24252;DHT22;12380;51.118;4.176;2022-07-24T09:35:43;29.50;99.90
24252;DHT22;12380;51.118;4.176;2022-07-24T09:38:17;30.10;99.90
24252;DHT22;12380;51.118;4.176;2022-07-24T09:40:47;30.40;99.90
24252;DHT22;12380;51.118;4.176;2022-07-24T09:43:17;30.80;15.10
24252;DHT22;12380;51.118;4.176;2022-07-24T09:46:02;31.20;1.00
24252;DHT22;12380;51.118;4.176;2022-07-24T09:48:34;30.90;1.00
24252;DHT22;12380;51.118;4.176;2022-07-24T09:51:12;31.00;1.00
24252;DHT22;12380;51.118;4.176;2022-07-24T09:53:45;31.40;13.30
24252;DHT22;12380;51.118;4.176;2022-07-24T09:56:16;30.60;1.00
24252;DHT22;12380;51.118;4.176;2022-07-24T10:01:13;30.30;43.70
24252;DHT22;12380;51.118;4.176;2022-07-24T10:03:41;30.60;1.00
24252;DHT22;12380;51.118;4.176;2022-07-24T10:06:12;31.00;1.00
24252;DHT22;12380;51.118;4.176;2022-07-24T10:08:42;30.50;1.00
24252;DHT22;12380;51.118;4.176;2022-07-24T10:11:12;30.20;1.00
24252;DHT22;12380;51.118;4.176;2022-07-24T10:13:38;30.00;1.00
24252;DHT22;12380;51.118;4.176;2022-07-24T10:26:50;31.00;1.00
24252;DHT22;12380;51.118;4.176;2022-07-24T10:29:21;30.80;1.00
24252;DHT22;12380;51.118;4.176;2022-07-24T10:31:49;31.40;1.00
24252;DHT22;12380;51.118;4.176;2022-07-24T10:40:12;31.50;1.00
24252;DHT22;12380;51.118;4.176;2022-07-24T10:45:41;31.50;1.00
24252;DHT22;12380;51.118;4.176;2022-07-24T10:56:28;31.40;1.00
24252;DHT22;12380;51.118;4.176;2022-07-24T10:59:05;31.30;1.00
24252;DHT22;12380;51.118;4.176;2022-07-24T11:01:43;30.50;1.00
24252;DHT22;12380;51.118;4.176;2022-07-24T11:06:50;30.90;1.00
24252;DHT22;12380;51.118;4.176;2022-07-24T11:09:18;31.00;1.00
24252;DHT22;12380;51.118;4.176;2022-07-24T11:14:23;31.60;1.00
24252;DHT22;12380;51.118;4.176;2022-07-24T11:16:52;31.60;1.00
24252;DHT22;12380;51.118;4.176;2022-07-24T11:21:46;31.90;1.00
24252;DHT22;12380;51.118;4.176;2022-07-24T11:26:52;31.50;1.00
24252;DHT22;12380;51.118;4.176;2022-07-24T11:29:23;31.40;1.00
24252;DHT22;12380;51.118;4.176;2022-07-24T11:31:57;31.40;1.00
24252;DHT22;12380;51.118;4.176;2022-07-24T11:34:27;31.50;1.00
24252;DHT22;12380;51.118;4.176;2022-07-24T11:36:55;31.30;1.00
24252;DHT22;12380;51.118;4.176;2022-07-24T11:39:33;31.00;1.00
24252;DHT22;12380;51.118;4.176;2022-07-24T11:42:02;31.30;1.00
24252;DHT22;12380;51.118;4.176;2022-07-24T11:44:33;31.50;1.00
24252;DHT22;12380;51.118;4.176;2022-07-24T11:47:18;31.70;1.00
24252;DHT22;12380;51.118;4.176;2022-07-24T11:54:50;32.40;1.00
24252;DHT22;12380;51.118;4.176;2022-07-24T11:59:45;31.80;1.00
24252;DHT22;12380;51.118;4.176;2022-07-24T12:02:11;31.60;1.00
24252;DHT22;12380;51.118;4.176;2022-07-24T12:04:41;32.00;1.00
24252;DHT22;12380;51.118;4.176;2022-07-24T12:07:13;31.80;1.00
24252;DHT22;12380;51.118;4.176;2022-07-24T12:09:46;31.90;1.00
24252;DHT22;12380;51.118;4.176;2022-07-24T12:14:50;32.70;1.00
24252;DHT22;12380;51.118;4.176;2022-07-24T12:17:15;32.30;1.00
24252;DHT22;12380;51.118;4.176;2022-07-24T12:19:50;32.30;1.00
24252;DHT22;12380;51.118;4.176;2022-07-24T12:22:18;32.70;1.00
24252;DHT22;12380;51.118;4.176;2022-07-24T12:24:45;32.50;1.00
24252;DHT22;12380;51.118;4.176;2022-07-24T12:27:11;32.70;1.00
24252;DHT22;12380;51.118;4.176;2022-07-24T12:29:43;32.60;1.00
24252;DHT22;12380;51.118;4.176;2022-07-24T12:32:15;32.50;1.00
24252;DHT22;12380;51.118;4.176;2022-07-24T12:34:45;32.60;1.00
24252;DHT22;12380;51.118;4.176;2022-07-24T12:37:19;32.70;1.00
24252;DHT22;12380;51.118;4.176;2022-07-24T12:39:50;33.20;1.00
24252;DHT22;12380;51.118;4.176;2022-07-24T12:42:17;33.30;1.00
24252;DHT22;12380;51.118;4.176;2022-07-24T12:44:45;33.10;1.00
24252;DHT22;12380;51.118;4.176;2022-07-24T12:47:12;33.30;1.00
24252;DHT22;12380;51.118;4.176;2022-07-24T12:49:44;33.10;1.00
24252;DHT22;12380;51.118;4.176;2022-07-24T12:52:24;32.60;1.00
24252;DHT22;12380;51.118;4.176;2022-07-24T12:54:51;32.30;1.00
24252;DHT22;12380;51.118;4.176;2022-07-24T12:57:21;32.00;1.00
24252;DHT22;12380;51.118;4.176;2022-07-24T12:59:50;32.20;1.00
24252;DHT22;12380;51.118;4.176;2022-07-24T13:02:21;32.80;1.00
24252;DHT22;12380;51.118;4.176;2022-07-24T13:04:52;32.60;1.00
24252;DHT22;12380;51.118;4.176;2022-07-24T13:07:20;32.60;1.00
24252;DHT22;12380;51.118;4.176;2022-07-24T13:09:47;32.70;1.00
24252;DHT22;12380;51.118;4.176;2022-07-24T13:12:13;32.90;1.00
24252;DHT22;12380;51.118;4.176;2022-07-24T13:14:41;33.00;1.00
24252;DHT22;12380;51.118;4.176;2022-07-24T13:17:12;32.70;1.00
24252;DHT22;12380;51.118;4.176;2022-07-24T13:19:40;32.40;1.00
24252;DHT22;12380;51.118;4.176;2022-07-24T13:22:07;32.50;1.00
24252;DHT22;12380;51.118;4.176;2022-07-24T13:24:33;32.80;1.00
24252;DHT22;12380;51.118;4.176;2022-07-24T13:26:59;32.90;1.00
24252;DHT22;12380;51.118;4.176;2022-07-24T13:29:26;32.70;1.00
24252;DHT22;12380;51.118;4.176;2022-07-24T13:31:52;32.80;1.00
24252;DHT22;12380;51.118;4.176;2022-07-24T13:34:21;32.60;1.00
24252;DHT22;12380;51.118;4.176;2022-07-24T13:36:46;32.70;1.00
24252;DHT22;12380;51.118;4.176;2022-07-24T13:39:13;32.90;1.00
24252;DHT22;12380;51.118;4.176;2022-07-24T13:41:42;32.80;1.00
24252;DHT22;12380;51.118;4.176;2022-07-24T13:44:08;33.10;1.00
24252;DHT22;12380;51.118;4.176;2022-07-24T13:46:34;33.00;1.00
24252;DHT22;12380;51.118;4.176;2022-07-24T13:49:02;33.00;1.00
24252;DHT22;12380;51.118;4.176;2022-07-24T13:51:29;33.20;1.00
24252;DHT22;12380;51.118;4.176;2022-07-24T13:53:57;33.00;1.00
24252;DHT22;12380;51.118;4.176;2022-07-24T13:56:26;33.10;1.00
24252;DHT22;12380;51.118;4.176;2022-07-24T13:58:53;33.30;1.00
24252;DHT22;12380;51.118;4.176;2022-07-24T14:01:19;33.40;1.00
24252;DHT22;12380;51.118;4.176;2022-07-24T14:03:46;33.00;1.00
24252;DHT22;12380;51.118;4.176;2022-07-24T14:06:12;33.20;1.00
24252;DHT22;12380;51.118;4.176;2022-07-24T14:08:39;33.60;1.00
24252;DHT22;12380;51.118;4.176;2022-07-24T14:11:06;34.10;1.00
24252;DHT22;12380;51.118;4.176;2022-07-24T14:13:32;34.30;1.00
24252;DHT22;12380;51.118;4.176;2022-07-24T14:15:58;34.10;1.00
24252;DHT22;12380;51.118;4.176;2022-07-24T14:18:25;34.10;1.00
24252;DHT22;12380;51.118;4.176;2022-07-24T14:20:51;33.60;1.00
24252;DHT22;12380;51.118;4.176;2022-07-24T14:23:18;33.40;1.00
24252;DHT22;12380;51.118;4.176;2022-07-24T14:25:46;33.10;1.00
24252;DHT22;12380;51.118;4.176;2022-07-24T14:28:12;32.80;1.00
24252;DHT22;12380;51.118;4.176;2022-07-24T14:30:39;32.70;1.00
24252;DHT22;12380;51.118;4.176;2022-07-24T14:33:05;32.80;1.00
24252;DHT22;12380;51.118;4.176;2022-07-24T14:35:31;32.80;1.00
24252;DHT22;12380;51.118;4.176;2022-07-24T14:37:59;32.80;1.00
24252;DHT22;12380;51.118;4.176;2022-07-24T14:40:25;33.30;1.00
24252;DHT22;12380;51.118;4.176;2022-07-24T14:42:52;33.30;1.00
24252;DHT22;12380;51.118;4.176;2022-07-24T14:45:18;33.60;1.00
24252;DHT22;12380;51.118;4.176;2022-07-24T14:47:44;33.60;1.00
24252;DHT22;12380;51.118;4.176;2022-07-24T14:50:12;33.40;1.00
24252;DHT22;12380;51.118;4.176;2022-07-24T14:52:39;33.10;1.00
24252;DHT22;12380;51.118;4.176;2022-07-24T14:55:06;33.10;1.00
24252;DHT22;12380;51.118;4.176;2022-07-24T14:57:32;33.10;1.00
24252;DHT22;12380;51.118;4.176;2022-07-24T14:59:58;33.10;1.00
24252;DHT22;12380;51.118;4.176;2022-07-24T15:02:24;33.00;1.00
24252;DHT22;12380;51.118;4.176;2022-07-24T15:04:52;33.40;1.00
24252;DHT22;12380;51.118;4.176;2022-07-24T15:07:19;33.60;1.00
24252;DHT22;12380;51.118;4.176;2022-07-24T15:09:46;33.30;1.00
24252;DHT22;12380;51.118;4.176;2022-07-24T15:12:11;33.10;1.00
24252;DHT22;12380;51.118;4.176;2022-07-24T15:14:39;32.90;1.00
24252;DHT22;12380;51.118;4.176;2022-07-24T15:17:05;32.60;1.00
24252;DHT22;12380;51.118;4.176;2022-07-24T15:19:31;32.60;1.00
24252;DHT22;12380;51.118;4.176;2022-07-24T15:21:59;32.80;1.00
24252;DHT22;12380;51.118;4.176;2022-07-24T15:24:24;32.80;1.00
24252;DHT22;12380;51.118;4.176;2022-07-24T15:26:53;32.70;1.00
24252;DHT22;12380;51.118;4.176;2022-07-24T15:29:19;32.40;1.00
24252;DHT22;12380;51.118;4.176;2022-07-24T15:31:45;32.30;1.00
24252;DHT22;12380;51.118;4.176;2022-07-24T15:34:17;32.40;1.00
24252;DHT22;12380;51.118;4.176;2022-07-24T15:36:42;32.50;1.00
24252;DHT22;12380;51.118;4.176;2022-07-24T15:39:10;32.50;1.00
24252;DHT22;12380;51.118;4.176;2022-07-24T15:41:36;32.40;1.00
24252;DHT22;12380;51.118;4.176;2022-07-24T15:44:04;32.30;1.00
24252;DHT22;12380;51.118;4.176;2022-07-24T15:46:31;32.00;1.00
24252;DHT22;12380;51.118;4.176;2022-07-24T15:48:57;32.00;1.00
24252;DHT22;12380;51.118;4.176;2022-07-24T15:51:24;32.10;1.00
24252;DHT22;12380;51.118;4.176;2022-07-24T15:53:50;32.10;1.00
24252;DHT22;12380;51.118;4.176;2022-07-24T15:56:17;32.10;1.00
24252;DHT22;12380;51.118;4.176;2022-07-24T15:58:42;32.20;1.00
24252;DHT22;12380;51.118;4.176;2022-07-24T16:01:08;32.40;1.00
24252;DHT22;12380;51.118;4.176;2022-07-24T16:03:34;32.70;1.00
24252;DHT22;12380;51.118;4.176;2022-07-24T16:06:00;32.60;1.00
24252;DHT22;12380;51.118;4.176;2022-07-24T16:08:28;32.50;1.00
24252;DHT22;12380;51.118;4.176;2022-07-24T16:10:53;32.10;1.00
24252;DHT22;12380;51.118;4.176;2022-07-24T16:13:19;32.10;1.00
24252;DHT22;12380;51.118;4.176;2022-07-24T16:15:45;32.40;1.00
24252;DHT22;12380;51.118;4.176;2022-07-24T16:18:13;32.30;1.00
24252;DHT22;12380;51.118;4.176;2022-07-24T16:20:42;32.10;1.00
24252;DHT22;12380;51.118;4.176;2022-07-24T16:23:08;32.00;1.00
24252;DHT22;12380;51.118;4.176;2022-07-24T16:25:34;32.10;1.00
24252;DHT22;12380;51.118;4.176;2022-07-24T16:28:00;32.20;1.00
24252;DHT22;12380;51.118;4.176;2022-07-24T16:30:25;32.00;1.00
24252;DHT22;12380;51.118;4.176;2022-07-24T16:32:52;31.80;1.00